createdAt,value
2023-02-18T00:01:24.660Z,2.45
2023-02-18T00:03:51.884Z,1.48
2023-02-18T00:06:31.353Z,1.77
2023-02-18T00:09:01.802Z,1.73
2023-02-18T00:11:30.049Z,1.80
2023-02-18T00:13:59.051Z,2.00
2023-02-18T00:16:26.763Z,2.67
2023-02-18T00:19:01.622Z,2.35
2023-02-18T00:21:28.418Z,2.35
2023-02-18T00:23:55.601Z,2.15
2023-02-18T00:26:22.271Z,1.95
2023-02-18T00:28:49.847Z,1.98
2023-02-18T00:31:20.426Z,2.03
2023-02-18T00:33:47.114Z,1.75
2023-02-18T00:36:18.842Z,2.15
2023-02-18T00:38:47.124Z,1.95
2023-02-18T00:41:14.485Z,1.90
2023-02-18T00:43:41.172Z,1.75
2023-02-18T00:46:08.393Z,1.80
2023-02-18T00:48:35.725Z,1.63
2023-02-18T00:51:03.923Z,1.55
2023-02-18T00:53:31.138Z,1.60
2023-02-18T00:55:58.132Z,2.50
2023-02-18T00:58:25.215Z,2.35
2023-02-18T01:00:51.899Z,2.08
2023-02-18T01:03:18.688Z,2.05
2023-02-18T01:05:45.657Z,1.83
2023-02-18T01:08:12.711Z,1.80
2023-02-18T01:10:45.024Z,2.20
2023-02-18T01:13:12.944Z,1.70
2023-02-18T01:15:40.427Z,1.73
2023-02-18T01:18:07.958Z,2.22
2023-02-18T01:20:36.287Z,1.65
2023-02-18T01:23:03.518Z,1.73
2023-02-18T01:25:30.267Z,2.38
2023-02-18T01:27:57.025Z,2.08
2023-02-18T01:30:24.123Z,1.45
2023-02-18T01:32:51.294Z,2.00
2023-02-18T01:35:19.568Z,1.52
2023-02-18T01:37:47.438Z,1.27
2023-02-18T01:40:16.160Z,1.85
2023-02-18T01:42:43.250Z,2.40
2023-02-18T01:45:29.337Z,1.65
2023-02-18T01:47:56.309Z,1.48
2023-02-18T01:50:22.929Z,2.35
2023-02-18T01:52:49.580Z,2.33
2023-02-18T01:55:16.336Z,1.67
2023-02-18T01:57:43.379Z,1.50
2023-02-18T02:00:14.669Z,1.58
2023-02-18T02:02:47.668Z,1.58
2023-02-18T02:05:14.828Z,1.55
2023-02-18T02:07:42.733Z,1.63
2023-02-18T02:10:10.883Z,2.03
2023-02-18T02:12:49.685Z,2.03
2023-02-18T02:15:42.575Z,1.50
2023-02-18T02:18:27.460Z,1.75
2023-02-18T02:21:06.341Z,2.30
2023-02-18T02:24:13.004Z,1.50
2023-02-18T02:27:11.976Z,1.60
2023-02-18T02:30:08.460Z,1.25
2023-02-18T02:32:57.202Z,1.30
2023-02-18T02:35:25.506Z,1.35
2023-02-18T02:38:19.543Z,1.45
2023-02-18T02:41:00.087Z,1.70
2023-02-18T02:43:52.119Z,1.70
2023-02-18T02:46:23.789Z,2.00
2023-02-18T02:49:05.444Z,1.60
2023-02-18T02:51:47.222Z,1.60
2023-02-18T02:54:19.886Z,1.58
2023-02-18T02:56:46.949Z,1.60
2023-02-18T02:59:24.053Z,1.05
2023-02-18T03:01:57.243Z,1.45
2023-02-18T03:04:49.305Z,1.63
2023-02-18T03:07:36.796Z,1.95
2023-02-18T03:10:08.435Z,1.17
2023-02-18T03:12:47.535Z,1.42
2023-02-18T03:15:40.455Z,1.08
2023-02-18T03:18:15.267Z,1.10
2023-02-18T03:20:55.456Z,1.02
2023-02-18T03:23:26.270Z,1.48
2023-02-18T03:25:53.481Z,1.20
2023-02-18T03:28:21.754Z,1.23
2023-02-18T03:30:53.330Z,1.45
2023-02-18T03:33:29.815Z,0.90
2023-02-18T03:35:57.873Z,1.08
2023-02-18T03:38:29.229Z,1.48
2023-02-18T03:40:57.525Z,1.30
2023-02-18T03:43:24.481Z,1.25
2023-02-18T03:45:51.421Z,1.25
2023-02-18T03:48:18.985Z,0.85
2023-02-18T03:50:45.679Z,1.10
2023-02-18T03:53:12.583Z,1.35
2023-02-18T03:55:39.281Z,1.15
2023-02-18T03:58:05.923Z,0.70
2023-02-18T04:00:32.616Z,1.30
2023-02-18T04:02:59.258Z,1.10
2023-02-18T04:05:29.082Z,1.20
2023-02-18T04:07:55.731Z,1.92
2023-02-18T04:10:23.056Z,1.17
2023-02-18T04:12:49.888Z,1.35
2023-02-18T04:15:16.572Z,1.10
2023-02-18T04:17:43.431Z,0.90
2023-02-18T04:20:10.529Z,1.00
2023-02-18T04:22:37.162Z,1.25
2023-02-18T04:25:03.879Z,1.15
2023-02-18T04:27:30.548Z,1.00
2023-02-18T04:30:07.305Z,1.30
2023-02-18T04:32:34.040Z,0.80
2023-02-18T04:35:00.755Z,1.30
2023-02-18T04:37:27.403Z,1.23
2023-02-18T04:39:54.097Z,1.30
2023-02-18T04:42:20.885Z,1.10
2023-02-18T04:44:47.768Z,1.30
2023-02-18T04:47:14.786Z,1.08
2023-02-18T04:49:41.480Z,1.23
2023-02-18T04:52:08.152Z,1.13
2023-02-18T04:54:34.890Z,1.58
2023-02-18T04:57:01.535Z,1.30
2023-02-18T04:59:28.221Z,0.90
2023-02-18T05:01:54.917Z,1.40
2023-02-18T05:04:21.910Z,1.08
2023-02-18T05:06:48.631Z,1.10
2023-02-18T05:09:15.385Z,1.58
2023-02-18T05:11:45.175Z,1.42
2023-02-18T05:14:11.886Z,1.30
2023-02-18T05:16:38.538Z,1.42
2023-02-18T05:19:05.385Z,1.40
2023-02-18T05:21:32.072Z,1.40
2023-02-18T05:23:58.966Z,1.30
2023-02-18T05:26:25.647Z,1.30
2023-02-18T05:28:52.357Z,1.23
2023-02-18T05:31:19.043Z,1.40
2023-02-18T05:33:45.760Z,1.67
2023-02-18T05:36:12.388Z,1.13
2023-02-18T05:38:39.108Z,1.20
2023-02-18T05:41:05.835Z,1.25
2023-02-18T05:43:52.469Z,1.17
2023-02-18T05:46:19.164Z,1.15
2023-02-18T05:48:45.807Z,1.17
2023-02-18T05:51:12.463Z,1.02
2023-02-18T05:53:39.117Z,1.38
2023-02-18T05:56:06.323Z,1.15
2023-02-18T05:58:33.216Z,1.00
2023-02-18T06:00:59.847Z,1.35
2023-02-18T06:03:26.489Z,1.17
2023-02-18T06:05:53.281Z,1.00
2023-02-18T06:08:22.791Z,1.15
2023-02-18T06:10:49.479Z,1.00
2023-02-18T06:13:16.184Z,1.10
2023-02-18T06:15:42.990Z,1.10
2023-02-18T06:18:09.801Z,1.02
2023-02-18T06:20:36.442Z,1.08
2023-02-18T06:23:03.044Z,1.00
2023-02-18T06:25:29.929Z,1.63
2023-02-18T06:27:56.561Z,0.80
2023-02-18T06:30:24.572Z,0.90
2023-02-18T06:32:51.317Z,1.00
2023-02-18T06:35:18.045Z,0.77
2023-02-18T06:37:45.933Z,1.92
2023-02-18T06:40:12.796Z,0.73
2023-02-18T06:42:39.435Z,0.77
2023-02-18T06:45:06.900Z,1.08
2023-02-18T06:47:34.459Z,0.77
2023-02-18T06:50:01.121Z,1.02
2023-02-18T06:52:27.836Z,1.08
2023-02-18T06:54:54.621Z,0.68
2023-02-18T06:57:21.473Z,0.98
2023-02-18T06:59:48.064Z,0.90
2023-02-18T07:02:14.736Z,0.98
2023-02-18T07:04:41.376Z,0.57
2023-02-18T07:07:08.073Z,1.02
2023-02-18T07:09:34.654Z,0.85
2023-02-18T07:12:01.281Z,0.60
2023-02-18T07:14:28.615Z,1.33
2023-02-18T07:16:55.247Z,0.70
2023-02-18T07:19:21.963Z,0.90
2023-02-18T07:21:48.638Z,0.60
2023-02-18T07:24:15.260Z,1.23
2023-02-18T07:26:41.962Z,0.93
2023-02-18T07:29:08.599Z,0.63
2023-02-18T07:31:35.327Z,1.08
2023-02-18T07:34:01.976Z,1.27
2023-02-18T07:36:31.776Z,0.93
2023-02-18T07:38:58.386Z,0.90
2023-02-18T07:41:25.820Z,0.70
2023-02-18T07:43:52.452Z,0.88
2023-02-18T07:46:19.193Z,0.90
2023-02-18T07:48:45.947Z,1.00
2023-02-18T07:51:13.512Z,0.85
2023-02-18T07:53:40.397Z,0.63
2023-02-18T07:56:07.496Z,1.45
2023-02-18T07:58:36.567Z,0.98
2023-02-18T08:01:12.049Z,0.82
2023-02-18T08:03:39.674Z,1.00
2023-02-18T08:06:07.005Z,0.82
2023-02-18T08:08:36.601Z,1.38
2023-02-18T08:11:13.331Z,0.80
2023-02-18T08:13:47.006Z,0.90
2023-02-18T08:16:13.937Z,1.17
2023-02-18T08:18:40.599Z,1.02
2023-02-18T08:21:07.256Z,1.50
2023-02-18T08:23:33.940Z,1.13
2023-02-18T08:26:00.601Z,1.13
2023-02-18T08:28:27.538Z,1.20
2023-02-18T08:30:54.760Z,1.65
2023-02-18T08:33:22.341Z,0.90
2023-02-18T08:35:50.647Z,1.10
2023-02-18T08:38:17.494Z,1.38
2023-02-18T08:40:44.476Z,1.40
2023-02-18T08:43:11.151Z,0.90
2023-02-18T08:45:38.720Z,1.63
2023-02-18T08:48:17.250Z,0.73
2023-02-18T08:50:47.184Z,1.05
2023-02-18T08:53:13.811Z,1.38
2023-02-18T08:55:41.032Z,1.17
2023-02-18T08:58:08.041Z,1.05
2023-02-18T09:00:35.154Z,1.52
2023-02-18T09:03:01.883Z,1.50
2023-02-18T09:05:28.540Z,1.70
2023-02-18T09:07:55.322Z,2.83
2023-02-18T09:10:22.203Z,1.85
2023-02-18T09:12:48.855Z,1.60
2023-02-18T09:15:15.825Z,2.65
2023-02-18T09:17:42.437Z,3.08
2023-02-18T09:20:09.564Z,2.55
2023-02-18T09:22:36.161Z,1.80
2023-02-18T09:25:03.756Z,1.10
2023-02-18T09:27:30.423Z,1.40
2023-02-18T09:29:57.126Z,1.38
2023-02-18T09:32:34.286Z,2.13
2023-02-18T09:35:02.926Z,1.73
2023-02-18T09:37:29.742Z,1.75
2023-02-18T09:39:56.452Z,1.75
2023-02-18T09:42:31.151Z,2.17
2023-02-18T09:45:01.111Z,1.65
2023-02-18T09:47:30.800Z,1.75
2023-02-18T09:50:01.472Z,1.67
2023-02-18T09:52:30.995Z,1.50
2023-02-18T09:54:57.950Z,1.80
2023-02-18T09:57:33.935Z,1.55
2023-02-18T10:00:07.710Z,1.83
2023-02-18T10:02:42.201Z,1.80
2023-02-18T10:05:14.241Z,0.80
2023-02-18T10:07:41.319Z,1.67
2023-02-18T10:10:33.542Z,1.65
2023-02-18T10:13:00.785Z,1.38
2023-02-18T10:15:29.755Z,1.40
2023-02-18T10:17:57.480Z,1.92
2023-02-18T10:20:28.144Z,3.05
2023-02-18T10:22:55.907Z,2.53
2023-02-18T10:25:23.679Z,3.08
2023-02-18T10:27:52.334Z,1.67
2023-02-18T10:30:33.540Z,1.98
2023-02-18T10:33:30.686Z,1.60
2023-02-18T10:36:12.758Z,1.52
2023-02-18T10:38:57.788Z,1.95
2023-02-18T10:41:53.014Z,1.65
2023-02-18T10:44:38.137Z,1.50
2023-02-18T10:47:22.843Z,2.22
2023-02-18T10:49:59.271Z,1.40
2023-02-18T10:52:30.459Z,1.75
2023-02-18T10:55:06.571Z,1.90
2023-02-18T10:57:33.769Z,1.65
2023-02-18T11:00:00.392Z,1.60
2023-02-18T11:02:31.606Z,2.05
2023-02-18T11:05:05.132Z,1.83
2023-02-18T11:07:34.419Z,2.20
2023-02-18T11:10:09.810Z,2.10
2023-02-18T11:12:46.732Z,1.90
2023-02-18T11:15:23.647Z,1.70
2023-02-18T11:17:52.624Z,1.40
2023-02-18T11:20:30.433Z,1.85
2023-02-18T11:22:59.125Z,1.85
2023-02-18T11:25:29.359Z,1.30
2023-02-18T11:27:57.872Z,1.50
2023-02-18T11:30:27.900Z,1.40
2023-02-18T11:32:58.251Z,1.30
2023-02-18T11:35:27.830Z,1.27
2023-02-18T11:37:57.259Z,1.50
2023-02-18T11:40:35.053Z,1.30
2023-02-18T11:43:13.706Z,1.48
2023-02-18T11:45:40.801Z,2.80
2023-02-18T11:48:15.655Z,2.03
2023-02-18T11:50:42.537Z,1.90
2023-02-18T11:53:35.204Z,1.90
2023-02-18T11:56:05.792Z,1.70
2023-02-18T11:58:40.051Z,1.70
2023-02-18T12:01:14.213Z,1.98
2023-02-18T12:03:40.806Z,2.00
2023-02-18T12:06:16.143Z,2.20
2023-02-18T12:08:54.726Z,2.15
2023-02-18T12:11:32.908Z,2.50
2023-02-18T12:13:59.747Z,2.30
2023-02-18T12:17:03.542Z,2.60
2023-02-18T12:19:51.626Z,3.13
2023-02-18T12:22:45.413Z,3.05
2023-02-18T12:25:26.491Z,2.78
2023-02-18T12:28:10.807Z,2.92
2023-02-18T12:31:05.208Z,2.95
2023-02-18T12:33:56.076Z,3.45
2023-02-18T12:36:28.787Z,3.25
2023-02-18T12:39:14.272Z,3.33
2023-02-18T12:42:17.316Z,3.50
2023-02-18T12:44:58.071Z,3.70
2023-02-18T12:47:31.862Z,4.65
2023-02-18T12:50:18.777Z,4.05
2023-02-18T12:53:14.975Z,3.88
2023-02-18T12:56:06.829Z,4.15
2023-02-18T12:58:39.522Z,3.72
2023-02-18T13:01:31.091Z,3.85
2023-02-18T13:04:15.937Z,3.60
2023-02-18T13:06:53.065Z,3.03
2023-02-18T13:10:02.395Z,3.45
2023-02-18T13:12:29.098Z,2.72
2023-02-18T13:15:05.774Z,2.63
2023-02-18T13:17:37.779Z,2.40
2023-02-18T13:20:27.815Z,2.40
2023-02-18T13:22:55.055Z,1.92
2023-02-18T13:25:22.209Z,2.20
2023-02-18T13:28:18.959Z,2.00
2023-02-18T13:30:55.487Z,1.98
2023-02-18T13:33:29.161Z,1.92
2023-02-18T13:36:11.038Z,2.33
2023-02-18T13:38:52.961Z,2.25
2023-02-18T13:41:21.400Z,2.50
2023-02-18T13:43:48.711Z,2.50
2023-02-18T13:46:19.120Z,2.50
2023-02-18T13:49:13.421Z,2.42
2023-02-18T13:51:48.783Z,2.83
2023-02-18T13:54:25.440Z,2.75
2023-02-18T13:56:54.989Z,2.88
2023-02-18T13:59:50.011Z,2.75
2023-02-18T14:02:20.693Z,2.33
2023-02-18T14:05:16.174Z,2.75
2023-02-18T14:07:50.489Z,2.47
2023-02-18T14:10:17.039Z,2.85
2023-02-18T14:12:51.675Z,3.00
2023-02-18T14:15:18.597Z,2.55
2023-02-18T14:18:09.876Z,2.80
2023-02-18T14:20:39.500Z,2.95
2023-02-18T14:23:18.357Z,2.97
2023-02-18T14:26:16.164Z,2.78
2023-02-18T14:28:48.944Z,2.22
2023-02-18T14:31:15.912Z,2.30
2023-02-18T14:34:01.299Z,1.80
2023-02-18T14:36:37.128Z,2.25
2023-02-18T14:39:41.132Z,1.98
2023-02-18T14:42:31.654Z,2.00
2023-02-18T14:45:11.935Z,1.90
2023-02-18T14:47:58.118Z,1.60
2023-02-18T14:50:25.036Z,1.33
2023-02-18T14:52:58.093Z,1.48
2023-02-18T14:55:30.919Z,1.60
2023-02-18T14:58:07.749Z,1.58
2023-02-18T15:00:39.433Z,1.17
2023-02-18T15:03:13.780Z,1.10
2023-02-18T15:05:40.498Z,1.05
2023-02-18T15:08:16.184Z,1.23
2023-02-18T15:10:56.511Z,0.82
2023-02-18T15:13:31.534Z,0.80
2023-02-18T15:16:02.291Z,0.85
2023-02-18T15:18:37.135Z,0.98
2023-02-18T15:21:05.682Z,0.70
2023-02-18T15:23:38.766Z,0.68
2023-02-18T15:26:06.875Z,0.70
2023-02-18T15:28:34.477Z,0.90
2023-02-18T15:31:03.425Z,0.60
2023-02-18T15:33:30.428Z,0.80
2023-02-18T15:36:06.005Z,0.60
2023-02-18T15:38:32.872Z,0.70
2023-02-18T15:41:00.086Z,0.93
2023-02-18T15:43:27.512Z,0.90
2023-02-18T15:45:58.041Z,0.60
2023-02-18T15:48:42.993Z,0.80
2023-02-18T15:51:17.619Z,0.55
2023-02-18T15:53:47.417Z,0.70
2023-02-18T15:56:38.180Z,0.80
2023-02-18T15:59:18.547Z,0.90
2023-02-18T16:01:53.467Z,0.80
2023-02-18T16:04:22.147Z,0.70
2023-02-18T16:06:53.737Z,0.60
2023-02-18T16:09:27.204Z,0.70
2023-02-18T16:12:02.336Z,0.73
2023-02-18T16:14:34.003Z,0.82
2023-02-18T16:17:12.987Z,0.60
2023-02-18T16:20:02.836Z,0.80
2023-02-18T16:22:30.762Z,0.63
2023-02-18T16:25:02.024Z,0.60
2023-02-18T16:27:33.643Z,0.60
2023-02-18T16:30:03.684Z,0.68
2023-02-18T16:32:30.335Z,0.68
2023-02-18T16:34:57.439Z,0.60
2023-02-18T16:37:39.108Z,0.60
2023-02-18T16:40:21.881Z,0.80
2023-02-18T16:42:48.563Z,0.52
2023-02-18T16:45:15.763Z,0.52
2023-02-18T16:47:43.600Z,0.40
2023-02-18T16:50:21.660Z,0.50
2023-02-18T16:52:49.371Z,0.38
2023-02-18T16:55:19.079Z,0.50
2023-02-18T16:57:48.258Z,0.43
2023-02-18T17:00:17.496Z,0.50
2023-02-18T17:02:46.617Z,0.73
2023-02-18T17:05:26.896Z,0.60
2023-02-18T17:07:54.961Z,0.63
2023-02-18T17:10:21.729Z,0.50
2023-02-18T17:12:48.826Z,0.80
2023-02-18T17:15:23.953Z,0.55
2023-02-18T17:17:50.779Z,0.50
2023-02-18T17:20:18.110Z,0.70
2023-02-18T17:22:44.791Z,0.60
2023-02-18T17:25:17.931Z,0.40
2023-02-18T17:27:46.409Z,1.00
2023-02-18T17:30:14.626Z,0.60
2023-02-18T17:32:42.315Z,0.80
2023-02-18T17:35:17.895Z,0.60
2023-02-18T17:37:44.615Z,0.73
2023-02-18T17:40:20.772Z,0.73
2023-02-18T17:42:47.775Z,0.82
2023-02-18T17:45:19.473Z,0.90
2023-02-18T17:47:46.551Z,0.90
2023-02-18T17:50:13.692Z,1.10
2023-02-18T17:52:40.527Z,0.80
2023-02-18T17:55:17.332Z,1.17
2023-02-18T17:57:45.175Z,1.13
2023-02-18T18:00:14.827Z,1.15
2023-02-18T18:02:41.517Z,1.10
2023-02-18T18:05:16.080Z,1.33
2023-02-18T18:07:42.900Z,1.30
2023-02-18T18:10:09.843Z,0.98
2023-02-18T18:12:36.667Z,1.15
2023-02-18T18:15:13.153Z,1.20
2023-02-18T18:17:39.919Z,1.23
2023-02-18T18:20:07.446Z,1.15
2023-02-18T18:22:34.130Z,1.08
2023-02-18T18:25:00.910Z,1.30
2023-02-18T18:27:27.637Z,1.15
2023-02-18T18:29:54.316Z,1.20
2023-02-18T18:32:22.972Z,1.23
2023-02-18T18:34:50.048Z,1.10
2023-02-18T18:37:16.710Z,1.00
2023-02-18T18:39:43.356Z,1.35
2023-02-18T18:42:12.374Z,1.20
2023-02-18T18:44:39.006Z,1.40
2023-02-18T18:47:05.763Z,1.35
2023-02-18T18:49:32.407Z,1.55
2023-02-18T18:51:59.457Z,1.15
2023-02-18T18:54:26.114Z,1.30
2023-02-18T18:56:53.548Z,1.33
2023-02-18T18:59:20.466Z,1.38
2023-02-18T19:01:47.270Z,1.50
2023-02-18T19:04:14.626Z,1.80
2023-02-18T19:06:41.493Z,1.58
2023-02-18T19:09:10.641Z,1.40
2023-02-18T19:11:37.700Z,1.90
2023-02-18T19:14:04.314Z,1.67
2023-02-18T19:16:39.899Z,1.80
2023-02-18T19:19:06.750Z,1.80
2023-02-18T19:21:33.652Z,1.98
2023-02-18T19:24:00.489Z,2.00
2023-02-18T19:26:28.089Z,2.10
2023-02-18T19:28:55.103Z,1.80
2023-02-18T19:31:24.493Z,1.63
2023-02-18T19:33:51.757Z,1.95
2023-02-18T19:36:18.807Z,1.90
2023-02-18T19:38:46.218Z,1.88
2023-02-18T19:41:15.531Z,2.10
2023-02-18T19:43:44.234Z,2.20
2023-02-18T19:46:15.358Z,2.17
2023-02-18T19:48:42.498Z,2.10
2023-02-18T19:51:12.517Z,2.13
2023-02-18T19:53:39.478Z,2.50
2023-02-18T19:56:07.524Z,2.80
2023-02-18T19:58:35.504Z,2.58
2023-02-18T20:01:02.390Z,3.05
2023-02-18T20:03:29.616Z,2.67
2023-02-18T20:05:56.295Z,2.53
2023-02-18T20:08:22.958Z,2.85
2023-02-18T20:10:57.809Z,2.75
2023-02-18T20:13:24.504Z,3.03
2023-02-18T20:15:51.210Z,2.67
2023-02-18T20:18:17.923Z,2.80
2023-02-18T20:20:51.318Z,3.17
2023-02-18T20:23:18.170Z,3.38
2023-02-18T20:25:47.692Z,3.85
2023-02-18T20:28:17.577Z,3.35
2023-02-18T20:30:44.531Z,3.50
2023-02-18T20:33:11.246Z,3.75
2023-02-18T20:35:38.071Z,3.75
2023-02-18T20:38:04.743Z,3.58
2023-02-18T20:40:31.400Z,3.92
2023-02-18T20:42:58.099Z,3.80
2023-02-18T20:45:25.941Z,3.90
2023-02-18T20:47:55.704Z,3.88
2023-02-18T20:50:22.497Z,3.83
2023-02-18T20:52:49.156Z,3.65
2023-02-18T20:55:15.902Z,3.85
2023-02-18T20:57:42.591Z,3.63
2023-02-18T21:00:09.947Z,3.83
2023-02-18T21:02:39.733Z,3.17
2023-02-18T21:05:06.446Z,3.78
2023-02-18T21:07:33.137Z,3.13
2023-02-18T21:09:59.863Z,3.13
2023-02-18T21:12:26.564Z,3.20
2023-02-18T21:14:53.243Z,2.47
2023-02-18T21:17:19.951Z,2.53
2023-02-18T21:19:46.613Z,2.88
2023-02-18T21:22:13.377Z,2.10
2023-02-18T21:24:43.723Z,2.03
2023-02-18T21:27:10.936Z,2.20
2023-02-18T21:29:37.600Z,2.13
2023-02-18T21:32:04.494Z,2.38
2023-02-18T21:34:31.167Z,2.00
2023-02-18T21:36:57.885Z,2.00
2023-02-18T21:39:24.563Z,2.40
2023-02-18T21:41:51.224Z,2.70
2023-02-18T21:44:18.012Z,2.72
2023-02-18T21:46:44.728Z,3.30
2023-02-18T21:49:12.663Z,3.45
2023-02-18T21:52:08.651Z,3.10
2023-02-18T21:54:44.744Z,3.20
2023-02-18T21:57:17.542Z,2.80
2023-02-18T21:59:45.474Z,2.85
2023-02-18T22:02:17.119Z,2.83
2023-02-18T22:04:44.065Z,3.05
2023-02-18T22:07:10.754Z,3.15
2023-02-18T22:09:37.580Z,3.00
2023-02-18T22:12:05.102Z,2.72
2023-02-18T22:14:31.912Z,3.20
2023-02-18T22:16:58.880Z,3.08
2023-02-18T22:19:26.009Z,3.17
2023-02-18T22:21:52.760Z,3.58
2023-02-18T22:24:19.482Z,3.40
2023-02-18T22:26:49.120Z,3.50
2023-02-18T22:29:18.241Z,3.22
2023-02-18T22:31:45.041Z,3.97
2023-02-18T22:34:11.840Z,3.28
2023-02-18T22:36:39.350Z,3.22
2023-02-18T22:39:06.333Z,3.75
2023-02-18T22:41:36.785Z,3.72
2023-02-18T22:44:05.920Z,4.32
2023-02-18T22:46:36.116Z,4.00
2023-02-18T22:49:04.665Z,4.15
2023-02-18T22:51:52.189Z,4.60
2023-02-18T22:54:19.673Z,3.97
2023-02-18T22:56:47.203Z,3.88
2023-02-18T22:59:15.576Z,3.95
2023-02-18T23:01:44.785Z,3.55
2023-02-18T23:04:13.305Z,4.22
2023-02-18T23:06:41.984Z,3.90
2023-02-18T23:09:11.837Z,4.00
2023-02-18T23:11:41.503Z,3.70
2023-02-18T23:14:21.466Z,3.90
2023-02-18T23:17:15.169Z,4.20
2023-02-18T23:19:48.880Z,3.83
2023-02-18T23:22:18.230Z,3.70
2023-02-18T23:24:45.959Z,4.13
2023-02-18T23:27:15.215Z,4.03
2023-02-18T23:29:42.278Z,3.80
2023-02-18T23:32:09.768Z,3.67
2023-02-18T23:34:37.798Z,3.30
2023-02-18T23:37:04.650Z,3.85
2023-02-18T23:39:31.336Z,4.97
2023-02-18T23:41:58.065Z,3.60
2023-02-18T23:44:26.232Z,3.95
2023-02-18T23:46:53.292Z,3.78
2023-02-18T23:49:22.345Z,3.60
2023-02-18T23:51:50.307Z,3.92
2023-02-18T23:54:17.108Z,3.60
2023-02-18T23:56:44.911Z,3.42
2023-02-18T23:59:12.334Z,3.90
